sensor_id;sensor_type;location;lat;lon;timestamp;P1;durP1;ratioP1;P2;durP2;ratioP2
7239;SDS011;3661;53.288;10.458;2022-11-21T00:02:19;30.38;;;28.63;;
7239;SDS011;3661;53.288;10.458;2022-11-21T00:04:51;32.13;;;30.33;;
7239;SDS011;3661;53.288;10.458;2022-11-21T00:07:24;30.98;;;29.08;;
7239;SDS011;3661;53.288;10.458;2022-11-21T00:09:56;28.10;;;26.30;;
7239;SDS011;3661;53.288;10.458;2022-11-21T00:12:29;30.20;;;28.50;;
7239;SDS011;3661;53.288;10.458;2022-11-21T00:15:01;31.83;;;29.93;;
7239;SDS011;3661;53.288;10.458;2022-11-21T00:17:34;32.08;;;30.27;;
7239;SDS011;3661;53.288;10.458;2022-11-21T00:20:07;26.70;;;25.08;;
7239;SDS011;3661;53.288;10.458;2022-11-21T00:22:39;28.50;;;26.60;;
7239;SDS011;3661;53.288;10.458;2022-11-21T00:25:12;31.77;;;29.98;;
7239;SDS011;3661;53.288;10.458;2022-11-21T00:27:46;32.40;;;30.60;;
7239;SDS011;3661;53.288;10.458;2022-11-21T00:30:18;33.90;;;31.98;;
7239;SDS011;3661;53.288;10.458;2022-11-21T00:32:50;34.35;;;32.40;;
7239;SDS011;3661;53.288;10.458;2022-11-21T00:35:23;34.33;;;32.43;;
7239;SDS011;3661;53.288;10.458;2022-11-21T00:37:55;34.88;;;32.97;;
7239;SDS011;3661;53.288;10.458;2022-11-21T00:40:27;36.63;;;34.67;;
7239;SDS011;3661;53.288;10.458;2022-11-21T00:43:01;31.73;;;29.77;;
7239;SDS011;3661;53.288;10.458;2022-11-21T00:45:33;31.50;;;29.65;;
7239;SDS011;3661;53.288;10.458;2022-11-21T00:48:06;31.80;;;29.90;;
7239;SDS011;3661;53.288;10.458;2022-11-21T00:50:38;31.63;;;29.63;;
7239;SDS011;3661;53.288;10.458;2022-11-21T00:53:10;32.60;;;30.75;;
7239;SDS011;3661;53.288;10.458;2022-11-21T00:55:42;33.00;;;31.10;;
7239;SDS011;3661;53.288;10.458;2022-11-21T00:58:16;33.00;;;31.23;;
7239;SDS011;3661;53.288;10.458;2022-11-21T01:00:48;29.15;;;27.25;;
7239;SDS011;3661;53.288;10.458;2022-11-21T01:03:23;35.58;;;33.40;;
7239;SDS011;3661;53.288;10.458;2022-11-21T01:05:58;35.08;;;32.97;;
7239;SDS011;3661;53.288;10.458;2022-11-21T01:08:33;35.03;;;33.07;;
7239;SDS011;3661;53.288;10.458;2022-11-21T01:11:07;33.88;;;31.83;;
7239;SDS011;3661;53.288;10.458;2022-11-21T01:13:43;33.60;;;31.40;;
7239;SDS011;3661;53.288;10.458;2022-11-21T01:16:17;34.13;;;31.92;;
7239;SDS011;3661;53.288;10.458;2022-11-21T01:18:52;32.28;;;30.15;;
7239;SDS011;3661;53.288;10.458;2022-11-21T01:21:25;34.83;;;32.58;;
7239;SDS011;3661;53.288;10.458;2022-11-21T01:23:59;33.58;;;31.50;;
7239;SDS011;3661;53.288;10.458;2022-11-21T01:26:32;34.25;;;32.00;;
7239;SDS011;3661;53.288;10.458;2022-11-21T01:29:05;35.17;;;32.97;;
7239;SDS011;3661;53.288;10.458;2022-11-21T01:31:38;30.75;;;28.75;;
7239;SDS011;3661;53.288;10.458;2022-11-21T01:34:10;31.33;;;29.35;;
7239;SDS011;3661;53.288;10.458;2022-11-21T01:36:44;33.13;;;31.13;;
7239;SDS011;3661;53.288;10.458;2022-11-21T01:39:16;30.55;;;28.70;;
7239;SDS011;3661;53.288;10.458;2022-11-21T01:41:48;29.85;;;27.83;;
7239;SDS011;3661;53.288;10.458;2022-11-21T01:44:22;30.38;;;28.48;;
7239;SDS011;3661;53.288;10.458;2022-11-21T01:46:56;31.00;;;28.95;;
7239;SDS011;3661;53.288;10.458;2022-11-21T01:49:29;31.70;;;29.63;;
7239;SDS011;3661;53.288;10.458;2022-11-21T01:52:03;28.67;;;26.80;;
7239;SDS011;3661;53.288;10.458;2022-11-21T01:54:40;31.75;;;29.95;;
7239;SDS011;3661;53.288;10.458;2022-11-21T01:57:16;35.33;;;33.28;;
7239;SDS011;3661;53.288;10.458;2022-11-21T01:59:54;33.15;;;31.35;;
7239;SDS011;3661;53.288;10.458;2022-11-21T02:02:30;31.92;;;30.08;;
7239;SDS011;3661;53.288;10.458;2022-11-21T02:05:05;34.22;;;32.28;;
7239;SDS011;3661;53.288;10.458;2022-11-21T02:07:42;33.30;;;31.40;;
7239;SDS011;3661;53.288;10.458;2022-11-21T02:10:17;31.85;;;30.05;;
7239;SDS011;3661;53.288;10.458;2022-11-21T02:12:50;32.92;;;31.00;;
7239;SDS011;3661;53.288;10.458;2022-11-21T02:15:26;31.83;;;30.13;;
7239;SDS011;3661;53.288;10.458;2022-11-21T02:17:59;30.42;;;28.67;;
7239;SDS011;3661;53.288;10.458;2022-11-21T02:20:31;31.92;;;30.02;;
7239;SDS011;3661;53.288;10.458;2022-11-21T02:23:04;30.73;;;28.73;;
7239;SDS011;3661;53.288;10.458;2022-11-21T02:25:44;32.20;;;30.35;;
7239;SDS011;3661;53.288;10.458;2022-11-21T02:28:17;32.67;;;30.75;;
7239;SDS011;3661;53.288;10.458;2022-11-21T02:30:52;33.15;;;30.98;;
7239;SDS011;3661;53.288;10.458;2022-11-21T02:33:24;30.93;;;28.97;;
7239;SDS011;3661;53.288;10.458;2022-11-21T02:35:57;29.08;;;27.08;;
7239;SDS011;3661;53.288;10.458;2022-11-21T02:38:31;28.83;;;27.02;;
7239;SDS011;3661;53.288;10.458;2022-11-21T02:41:10;33.17;;;30.97;;
7239;SDS011;3661;53.288;10.458;2022-11-21T02:43:48;30.08;;;28.17;;
7239;SDS011;3661;53.288;10.458;2022-11-21T02:46:25;29.70;;;27.60;;
7239;SDS011;3661;53.288;10.458;2022-11-21T02:48:58;32.65;;;30.60;;
7239;SDS011;3661;53.288;10.458;2022-11-21T02:51:30;32.80;;;30.63;;
7239;SDS011;3661;53.288;10.458;2022-11-21T02:54:02;32.58;;;30.55;;
7239;SDS011;3661;53.288;10.458;2022-11-21T02:56:36;32.70;;;30.70;;
7239;SDS011;3661;53.288;10.458;2022-11-21T02:59:08;34.65;;;32.35;;
7239;SDS011;3661;53.288;10.458;2022-11-21T03:01:40;30.83;;;28.90;;
7239;SDS011;3661;53.288;10.458;2022-11-21T03:04:12;34.37;;;32.03;;
7239;SDS011;3661;53.288;10.458;2022-11-21T03:06:44;32.80;;;30.63;;
7239;SDS011;3661;53.288;10.458;2022-11-21T03:09:17;35.58;;;33.20;;
7239;SDS011;3661;53.288;10.458;2022-11-21T03:11:51;32.60;;;30.38;;
7239;SDS011;3661;53.288;10.458;2022-11-21T03:14:23;33.38;;;30.98;;
7239;SDS011;3661;53.288;10.458;2022-11-21T03:16:55;33.03;;;30.88;;
7239;SDS011;3661;53.288;10.458;2022-11-21T03:19:27;32.42;;;30.38;;
7239;SDS011;3661;53.288;10.458;2022-11-21T03:21:59;32.25;;;30.23;;
7239;SDS011;3661;53.288;10.458;2022-11-21T03:24:33;32.50;;;30.30;;
7239;SDS011;3661;53.288;10.458;2022-11-21T03:27:06;32.13;;;30.02;;
7239;SDS011;3661;53.288;10.458;2022-11-21T03:29:39;30.80;;;28.98;;
7239;SDS011;3661;53.288;10.458;2022-11-21T03:32:11;33.47;;;31.17;;
7239;SDS011;3661;53.288;10.458;2022-11-21T03:34:43;33.08;;;30.95;;
7239;SDS011;3661;53.288;10.458;2022-11-21T03:37:15;35.35;;;32.92;;
7239;SDS011;3661;53.288;10.458;2022-11-21T03:39:47;31.88;;;29.88;;
7239;SDS011;3661;53.288;10.458;2022-11-21T03:42:21;32.17;;;29.90;;
7239;SDS011;3661;53.288;10.458;2022-11-21T03:44:53;33.13;;;30.80;;
7239;SDS011;3661;53.288;10.458;2022-11-21T03:47:25;32.53;;;30.23;;
7239;SDS011;3661;53.288;10.458;2022-11-21T03:49:57;31.27;;;28.98;;
7239;SDS011;3661;53.288;10.458;2022-11-21T03:52:30;31.90;;;29.70;;
7239;SDS011;3661;53.288;10.458;2022-11-21T03:55:02;31.73;;;29.42;;
7239;SDS011;3661;53.288;10.458;2022-11-21T03:57:39;30.50;;;28.40;;
7239;SDS011;3661;53.288;10.458;2022-11-21T04:00:12;31.98;;;29.67;;
7239;SDS011;3661;53.288;10.458;2022-11-21T04:02:48;32.00;;;29.63;;
7239;SDS011;3661;53.288;10.458;2022-11-21T04:05:20;31.08;;;28.95;;
7239;SDS011;3661;53.288;10.458;2022-11-21T04:07:52;30.42;;;28.42;;
7239;SDS011;3661;53.288;10.458;2022-11-21T04:10:25;30.83;;;28.73;;
7239;SDS011;3661;53.288;10.458;2022-11-21T04:12:59;31.52;;;29.33;;
7239;SDS011;3661;53.288;10.458;2022-11-21T04:15:31;34.03;;;31.92;;
7239;SDS011;3661;53.288;10.458;2022-11-21T04:18:03;29.85;;;27.67;;
7239;SDS011;3661;53.288;10.458;2022-11-21T04:20:35;31.55;;;29.45;;
7239;SDS011;3661;53.288;10.458;2022-11-21T04:23:14;34.15;;;31.85;;
7239;SDS011;3661;53.288;10.458;2022-11-21T04:26:03;32.63;;;30.42;;
7239;SDS011;3661;53.288;10.458;2022-11-21T04:28:37;32.80;;;30.70;;
7239;SDS011;3661;53.288;10.458;2022-11-21T04:31:09;32.40;;;30.05;;
7239;SDS011;3661;53.288;10.458;2022-11-21T04:33:41;31.13;;;28.83;;
7239;SDS011;3661;53.288;10.458;2022-11-21T04:36:13;32.15;;;30.00;;
7239;SDS011;3661;53.288;10.458;2022-11-21T04:38:46;33.55;;;31.30;;
7239;SDS011;3661;53.288;10.458;2022-11-21T04:41:18;33.38;;;31.17;;
7239;SDS011;3661;53.288;10.458;2022-11-21T04:43:52;32.22;;;30.02;;
7239;SDS011;3661;53.288;10.458;2022-11-21T04:46:24;32.17;;;30.00;;
7239;SDS011;3661;53.288;10.458;2022-11-21T04:48:56;31.75;;;29.73;;
7239;SDS011;3661;53.288;10.458;2022-11-21T04:51:29;31.35;;;29.15;;
7239;SDS011;3661;53.288;10.458;2022-11-21T04:54:02;33.85;;;31.45;;
7239;SDS011;3661;53.288;10.458;2022-11-21T04:56:35;31.07;;;28.90;;
7239;SDS011;3661;53.288;10.458;2022-11-21T04:59:09;34.50;;;32.10;;
7239;SDS011;3661;53.288;10.458;2022-11-21T05:01:41;31.90;;;29.90;;
7239;SDS011;3661;53.288;10.458;2022-11-21T05:04:14;33.17;;;30.90;;
7239;SDS011;3661;53.288;10.458;2022-11-21T05:06:46;30.10;;;27.98;;
7239;SDS011;3661;53.288;10.458;2022-11-21T05:09:18;30.90;;;28.83;;
7239;SDS011;3661;53.288;10.458;2022-11-21T05:11:50;31.80;;;29.55;;
7239;SDS011;3661;53.288;10.458;2022-11-21T05:14:42;31.67;;;29.38;;
7239;SDS011;3661;53.288;10.458;2022-11-21T05:17:17;32.40;;;30.00;;
7239;SDS011;3661;53.288;10.458;2022-11-21T05:19:49;31.55;;;29.15;;
7239;SDS011;3661;53.288;10.458;2022-11-21T05:22:21;33.17;;;30.60;;
7239;SDS011;3661;53.288;10.458;2022-11-21T05:24:54;30.90;;;28.67;;
7239;SDS011;3661;53.288;10.458;2022-11-21T05:27:26;32.72;;;30.52;;
7239;SDS011;3661;53.288;10.458;2022-11-21T05:29:59;31.50;;;29.23;;
7239;SDS011;3661;53.288;10.458;2022-11-21T05:32:32;31.17;;;29.05;;
7239;SDS011;3661;53.288;10.458;2022-11-21T05:35:04;31.42;;;29.25;;
7239;SDS011;3661;53.288;10.458;2022-11-21T05:37:37;29.50;;;27.40;;
7239;SDS011;3661;53.288;10.458;2022-11-21T05:40:10;29.75;;;27.63;;
7239;SDS011;3661;53.288;10.458;2022-11-21T05:42:42;31.00;;;28.73;;
7239;SDS011;3661;53.288;10.458;2022-11-21T05:45:33;32.55;;;30.27;;
7239;SDS011;3661;53.288;10.458;2022-11-21T05:48:07;31.10;;;28.88;;
7239;SDS011;3661;53.288;10.458;2022-11-21T05:50:39;29.48;;;27.48;;
7239;SDS011;3661;53.288;10.458;2022-11-21T05:53:11;30.75;;;28.55;;
7239;SDS011;3661;53.288;10.458;2022-11-21T05:55:45;29.02;;;26.83;;
7239;SDS011;3661;53.288;10.458;2022-11-21T05:58:17;33.65;;;31.35;;
7239;SDS011;3661;53.288;10.458;2022-11-21T06:00:55;32.70;;;30.30;;
7239;SDS011;3661;53.288;10.458;2022-11-21T06:03:30;31.95;;;29.63;;
7239;SDS011;3661;53.288;10.458;2022-11-21T06:06:04;31.15;;;28.92;;
7239;SDS011;3661;53.288;10.458;2022-11-21T06:08:45;33.40;;;31.20;;
7239;SDS011;3661;53.288;10.458;2022-11-21T06:11:17;32.15;;;29.85;;
7239;SDS011;3661;53.288;10.458;2022-11-21T06:13:50;31.77;;;29.58;;
7239;SDS011;3661;53.288;10.458;2022-11-21T06:16:24;30.77;;;28.50;;
7239;SDS011;3661;53.288;10.458;2022-11-21T06:18:56;31.50;;;29.00;;
7239;SDS011;3661;53.288;10.458;2022-11-21T06:21:28;29.33;;;26.85;;
7239;SDS011;3661;53.288;10.458;2022-11-21T06:24:03;29.23;;;26.93;;
7239;SDS011;3661;53.288;10.458;2022-11-21T06:26:38;28.30;;;26.13;;
7239;SDS011;3661;53.288;10.458;2022-11-21T06:29:10;30.27;;;28.13;;
7239;SDS011;3661;53.288;10.458;2022-11-21T06:31:43;27.37;;;25.13;;
7239;SDS011;3661;53.288;10.458;2022-11-21T06:34:17;29.25;;;27.10;;
7239;SDS011;3661;53.288;10.458;2022-11-21T06:36:49;30.10;;;28.00;;
7239;SDS011;3661;53.288;10.458;2022-11-21T06:39:21;30.30;;;28.00;;
7239;SDS011;3661;53.288;10.458;2022-11-21T06:41:53;29.08;;;26.90;;
7239;SDS011;3661;53.288;10.458;2022-11-21T06:44:28;32.17;;;29.77;;
7239;SDS011;3661;53.288;10.458;2022-11-21T06:47:02;32.22;;;29.88;;
7239;SDS011;3661;53.288;10.458;2022-11-21T06:49:34;33.03;;;30.60;;
7239;SDS011;3661;53.288;10.458;2022-11-21T06:52:06;30.00;;;27.73;;
7239;SDS011;3661;53.288;10.458;2022-11-21T06:54:38;30.38;;;27.92;;
7239;SDS011;3661;53.288;10.458;2022-11-21T06:57:12;28.75;;;26.60;;
7239;SDS011;3661;53.288;10.458;2022-11-21T06:59:44;25.60;;;23.60;;
7239;SDS011;3661;53.288;10.458;2022-11-21T07:02:18;24.70;;;22.83;;
7239;SDS011;3661;53.288;10.458;2022-11-21T07:04:50;24.95;;;23.23;;
7239;SDS011;3661;53.288;10.458;2022-11-21T07:07:22;26.88;;;25.17;;
7239;SDS011;3661;53.288;10.458;2022-11-21T07:09:54;25.67;;;23.98;;
7239;SDS011;3661;53.288;10.458;2022-11-21T07:12:26;27.58;;;25.58;;
7239;SDS011;3661;53.288;10.458;2022-11-21T07:15:16;26.70;;;24.80;;
7239;SDS011;3661;53.288;10.458;2022-11-21T07:17:49;27.93;;;25.73;;
7239;SDS011;3661;53.288;10.458;2022-11-21T07:20:22;27.45;;;25.65;;
7239;SDS011;3661;53.288;10.458;2022-11-21T07:22:54;27.95;;;26.00;;
7239;SDS011;3661;53.288;10.458;2022-11-21T07:25:27;28.70;;;26.70;;
7239;SDS011;3661;53.288;10.458;2022-11-21T07:27:59;30.63;;;28.33;;
7239;SDS011;3661;53.288;10.458;2022-11-21T07:30:32;29.05;;;26.85;;
7239;SDS011;3661;53.288;10.458;2022-11-21T07:33:06;27.85;;;25.65;;
7239;SDS011;3661;53.288;10.458;2022-11-21T07:35:39;28.05;;;25.75;;
7239;SDS011;3661;53.288;10.458;2022-11-21T07:38:12;30.60;;;28.20;;
7239;SDS011;3661;53.288;10.458;2022-11-21T07:40:45;28.33;;;26.02;;
7239;SDS011;3661;53.288;10.458;2022-11-21T07:43:18;28.07;;;26.07;;
7239;SDS011;3661;53.288;10.458;2022-11-21T07:45:51;29.83;;;27.63;;
7239;SDS011;3661;53.288;10.458;2022-11-21T07:48:24;28.38;;;26.13;;
7239;SDS011;3661;53.288;10.458;2022-11-21T07:50:56;28.55;;;26.20;;
7239;SDS011;3661;53.288;10.458;2022-11-21T07:53:28;27.55;;;25.52;;
7239;SDS011;3661;53.288;10.458;2022-11-21T07:56:01;26.25;;;24.50;;
7239;SDS011;3661;53.288;10.458;2022-11-21T07:58:34;26.10;;;24.17;;
7239;SDS011;3661;53.288;10.458;2022-11-21T08:01:06;26.40;;;24.42;;
7239;SDS011;3661;53.288;10.458;2022-11-21T08:03:41;27.98;;;26.08;;
7239;SDS011;3661;53.288;10.458;2022-11-21T08:06:14;27.88;;;25.85;;
7239;SDS011;3661;53.288;10.458;2022-11-21T08:08:46;29.45;;;27.05;;
7239;SDS011;3661;53.288;10.458;2022-11-21T08:11:22;29.00;;;26.60;;
7239;SDS011;3661;53.288;10.458;2022-11-21T08:13:54;29.57;;;27.23;;
7239;SDS011;3661;53.288;10.458;2022-11-21T08:16:28;29.27;;;27.08;;
7239;SDS011;3661;53.288;10.458;2022-11-21T08:19:03;31.30;;;28.95;;
7239;SDS011;3661;53.288;10.458;2022-11-21T08:21:35;30.38;;;28.00;;
7239;SDS011;3661;53.288;10.458;2022-11-21T08:24:09;29.77;;;27.48;;
7239;SDS011;3661;53.288;10.458;2022-11-21T08:26:43;27.77;;;25.88;;
7239;SDS011;3661;53.288;10.458;2022-11-21T08:29:16;28.92;;;26.92;;
7239;SDS011;3661;53.288;10.458;2022-11-21T08:31:48;28.20;;;26.23;;
7239;SDS011;3661;53.288;10.458;2022-11-21T08:34:22;29.00;;;27.02;;
7239;SDS011;3661;53.288;10.458;2022-11-21T08:36:55;28.55;;;26.45;;
7239;SDS011;3661;53.288;10.458;2022-11-21T08:39:29;28.52;;;26.35;;
7239;SDS011;3661;53.288;10.458;2022-11-21T08:42:01;27.45;;;25.35;;
7239;SDS011;3661;53.288;10.458;2022-11-21T08:44:33;27.65;;;25.52;;
7239;SDS011;3661;53.288;10.458;2022-11-21T08:47:05;27.42;;;25.52;;
7239;SDS011;3661;53.288;10.458;2022-11-21T08:49:39;26.63;;;24.85;;
7239;SDS011;3661;53.288;10.458;2022-11-21T08:52:11;27.20;;;25.20;;
7239;SDS011;3661;53.288;10.458;2022-11-21T08:54:44;27.77;;;25.77;;
7239;SDS011;3661;53.288;10.458;2022-11-21T08:57:16;26.77;;;24.92;;
7239;SDS011;3661;53.288;10.458;2022-11-21T08:59:48;30.00;;;28.00;;
7239;SDS011;3661;53.288;10.458;2022-11-21T09:02:20;27.55;;;25.55;;
7239;SDS011;3661;53.288;10.458;2022-11-21T09:04:54;27.52;;;25.42;;
7239;SDS011;3661;53.288;10.458;2022-11-21T09:07:26;27.13;;;25.40;;
7239;SDS011;3661;53.288;10.458;2022-11-21T09:09:58;30.35;;;28.35;;
7239;SDS011;3661;53.288;10.458;2022-11-21T09:12:30;28.73;;;26.67;;
7239;SDS011;3661;53.288;10.458;2022-11-21T09:15:02;28.88;;;27.08;;
7239;SDS011;3661;53.288;10.458;2022-11-21T09:17:52;31.00;;;29.00;;
7239;SDS011;3661;53.288;10.458;2022-11-21T09:20:39;27.23;;;25.42;;
7239;SDS011;3661;53.288;10.458;2022-11-21T09:23:14;28.70;;;26.77;;
7239;SDS011;3661;53.288;10.458;2022-11-21T09:25:46;28.92;;;26.83;;
7239;SDS011;3661;53.288;10.458;2022-11-21T09:28:21;26.92;;;25.13;;
7239;SDS011;3661;53.288;10.458;2022-11-21T09:30:53;28.85;;;26.95;;
7239;SDS011;3661;53.288;10.458;2022-11-21T09:33:25;26.63;;;24.67;;
7239;SDS011;3661;53.288;10.458;2022-11-21T09:35:59;28.65;;;26.65;;
7239;SDS011;3661;53.288;10.458;2022-11-21T09:38:31;28.17;;;26.17;;
7239;SDS011;3661;53.288;10.458;2022-11-21T09:41:08;28.25;;;26.35;;
7239;SDS011;3661;53.288;10.458;2022-11-21T09:44:03;27.83;;;26.05;;
7239;SDS011;3661;53.288;10.458;2022-11-21T09:46:44;30.02;;;27.98;;
7239;SDS011;3661;53.288;10.458;2022-11-21T09:49:21;29.05;;;27.15;;
7239;SDS011;3661;53.288;10.458;2022-11-21T09:51:57;26.38;;;24.70;;
7239;SDS011;3661;53.288;10.458;2022-11-21T09:54:31;29.17;;;27.03;;
7239;SDS011;3661;53.288;10.458;2022-11-21T09:57:05;27.33;;;25.40;;
7239;SDS011;3661;53.288;10.458;2022-11-21T09:59:40;29.52;;;27.52;;
7239;SDS011;3661;53.288;10.458;2022-11-21T10:02:14;28.08;;;26.38;;
7239;SDS011;3661;53.288;10.458;2022-11-21T10:04:52;31.60;;;29.65;;
7239;SDS011;3661;53.288;10.458;2022-11-21T10:07:31;31.73;;;29.73;;
7239;SDS011;3661;53.288;10.458;2022-11-21T10:10:26;30.33;;;28.27;;
7239;SDS011;3661;53.288;10.458;2022-11-21T10:13:12;28.75;;;26.75;;
7239;SDS011;3661;53.288;10.458;2022-11-21T10:15:56;29.67;;;27.63;;
7239;SDS011;3661;53.288;10.458;2022-11-21T10:18:42;31.67;;;29.55;;
7239;SDS011;3661;53.288;10.458;2022-11-21T10:21:32;26.77;;;25.10;;
7239;SDS011;3661;53.288;10.458;2022-11-21T10:24:29;27.83;;;25.92;;
7239;SDS011;3661;53.288;10.458;2022-11-21T10:27:11;26.38;;;24.67;;
7239;SDS011;3661;53.288;10.458;2022-11-21T10:29:48;26.48;;;24.77;;
7239;SDS011;3661;53.288;10.458;2022-11-21T10:32:25;25.88;;;24.23;;
7239;SDS011;3661;53.288;10.458;2022-11-21T10:35:00;25.83;;;24.13;;
7239;SDS011;3661;53.288;10.458;2022-11-21T10:37:36;25.48;;;23.65;;
7239;SDS011;3661;53.288;10.458;2022-11-21T10:40:15;29.35;;;27.65;;
7239;SDS011;3661;53.288;10.458;2022-11-21T10:42:57;27.17;;;25.58;;
7239;SDS011;3661;53.288;10.458;2022-11-21T10:45:54;27.33;;;25.67;;
7239;SDS011;3661;53.288;10.458;2022-11-21T10:48:25;26.17;;;24.63;;
7239;SDS011;3661;53.288;10.458;2022-11-21T10:51:04;26.43;;;24.73;;
7239;SDS011;3661;53.288;10.458;2022-11-21T10:54:01;27.75;;;26.10;;
7239;SDS011;3661;53.288;10.458;2022-11-21T10:56:53;26.90;;;25.17;;
7239;SDS011;3661;53.288;10.458;2022-11-21T10:59:30;27.00;;;25.13;;
7239;SDS011;3661;53.288;10.458;2022-11-21T11:02:09;29.27;;;27.57;;
7239;SDS011;3661;53.288;10.458;2022-11-21T11:07:57;29.05;;;27.35;;
7239;SDS011;3661;53.288;10.458;2022-11-21T11:10:32;26.67;;;25.15;;
7239;SDS011;3661;53.288;10.458;2022-11-21T11:13:13;28.73;;;26.95;;
7239;SDS011;3661;53.288;10.458;2022-11-21T11:16:09;27.63;;;25.88;;
7239;SDS011;3661;53.288;10.458;2022-11-21T11:18:50;25.40;;;23.90;;
7239;SDS011;3661;53.288;10.458;2022-11-21T11:21:28;29.58;;;27.98;;
7239;SDS011;3661;53.288;10.458;2022-11-21T11:24:18;23.33;;;21.92;;
7239;SDS011;3661;53.288;10.458;2022-11-21T11:26:56;24.98;;;23.55;;
7239;SDS011;3661;53.288;10.458;2022-11-21T11:29:31;25.27;;;23.92;;
7239;SDS011;3661;53.288;10.458;2022-11-21T11:32:12;23.33;;;22.08;;
7239;SDS011;3661;53.288;10.458;2022-11-21T11:34:51;26.98;;;25.77;;
7239;SDS011;3661;53.288;10.458;2022-11-21T11:37:31;25.35;;;24.05;;
7239;SDS011;3661;53.288;10.458;2022-11-21T11:40:07;26.52;;;25.23;;
7239;SDS011;3661;53.288;10.458;2022-11-21T11:43:03;23.63;;;22.33;;
7239;SDS011;3661;53.288;10.458;2022-11-21T11:46:26;22.30;;;20.92;;
7239;SDS011;3661;53.288;10.458;2022-11-21T11:49:27;22.33;;;21.33;;
7239;SDS011;3661;53.288;10.458;2022-11-21T11:52:27;19.95;;;18.85;;
7239;SDS011;3661;53.288;10.458;2022-11-21T11:55:04;22.88;;;21.55;;
7239;SDS011;3661;53.288;10.458;2022-11-21T11:57:38;18.58;;;17.65;;
7239;SDS011;3661;53.288;10.458;2022-11-21T12:00:17;26.90;;;25.55;;
7239;SDS011;3661;53.288;10.458;2022-11-21T12:03:02;21.27;;;20.10;;
7239;SDS011;3661;53.288;10.458;2022-11-21T12:05:49;20.70;;;19.80;;
7239;SDS011;3661;53.288;10.458;2022-11-21T12:08:29;22.10;;;21.00;;
7239;SDS011;3661;53.288;10.458;2022-11-21T12:11:14;19.33;;;18.27;;
7239;SDS011;3661;53.288;10.458;2022-11-21T12:14:12;16.73;;;15.88;;
7239;SDS011;3661;53.288;10.458;2022-11-21T12:17:04;21.02;;;20.08;;
7239;SDS011;3661;53.288;10.458;2022-11-21T12:19:40;18.90;;;18.08;;
7239;SDS011;3661;53.288;10.458;2022-11-21T12:22:13;18.65;;;17.65;;
7239;SDS011;3661;53.288;10.458;2022-11-21T12:24:45;18.38;;;17.48;;
7239;SDS011;3661;53.288;10.458;2022-11-21T12:27:23;21.13;;;20.17;;
7239;SDS011;3661;53.288;10.458;2022-11-21T12:33:00;17.73;;;16.90;;
7239;SDS011;3661;53.288;10.458;2022-11-21T12:35:44;18.48;;;17.58;;
7239;SDS011;3661;53.288;10.458;2022-11-21T12:38:45;15.48;;;14.68;;
7239;SDS011;3661;53.288;10.458;2022-11-21T12:41:47;18.45;;;17.58;;
7239;SDS011;3661;53.288;10.458;2022-11-21T12:44:52;16.20;;;15.50;;
7239;SDS011;3661;53.288;10.458;2022-11-21T12:47:36;16.27;;;15.55;;
7239;SDS011;3661;53.288;10.458;2022-11-21T12:50:48;20.20;;;19.40;;
7239;SDS011;3661;53.288;10.458;2022-11-21T12:53:45;15.98;;;15.27;;
7239;SDS011;3661;53.288;10.458;2022-11-21T12:56:44;14.05;;;13.45;;
7239;SDS011;3661;53.288;10.458;2022-11-21T12:59:22;18.27;;;17.48;;
7239;SDS011;3661;53.288;10.458;2022-11-21T13:01:57;14.63;;;13.97;;
7239;SDS011;3661;53.288;10.458;2022-11-21T13:04:38;16.45;;;15.75;;
7239;SDS011;3661;53.288;10.458;2022-11-21T13:07:14;17.35;;;16.65;;
7239;SDS011;3661;53.288;10.458;2022-11-21T13:09:51;17.43;;;16.73;;
7239;SDS011;3661;53.288;10.458;2022-11-21T13:12:26;14.70;;;14.05;;
7239;SDS011;3661;53.288;10.458;2022-11-21T13:15:12;16.07;;;15.40;;
7239;SDS011;3661;53.288;10.458;2022-11-21T13:17:50;14.15;;;13.45;;
7239;SDS011;3661;53.288;10.458;2022-11-21T13:20:27;16.42;;;15.52;;
7239;SDS011;3661;53.288;10.458;2022-11-21T13:23:07;13.98;;;13.38;;
7239;SDS011;3661;53.288;10.458;2022-11-21T13:29:15;15.55;;;14.93;;
7239;SDS011;3661;53.288;10.458;2022-11-21T13:31:48;16.40;;;15.80;;
7239;SDS011;3661;53.288;10.458;2022-11-21T13:34:36;14.27;;;13.60;;
7239;SDS011;3661;53.288;10.458;2022-11-21T13:37:10;15.52;;;14.88;;
7239;SDS011;3661;53.288;10.458;2022-11-21T13:40:36;13.52;;;12.82;;
7239;SDS011;3661;53.288;10.458;2022-11-21T13:43:29;15.63;;;15.02;;
7239;SDS011;3661;53.288;10.458;2022-11-21T13:46:01;13.18;;;12.57;;
7239;SDS011;3661;53.288;10.458;2022-11-21T13:48:40;13.93;;;13.32;;
7239;SDS011;3661;53.288;10.458;2022-11-21T13:57:26;13.48;;;12.88;;
7239;SDS011;3661;53.288;10.458;2022-11-21T14:00:16;14.18;;;13.60;;
7239;SDS011;3661;53.288;10.458;2022-11-21T14:06:07;16.83;;;16.07;;
7239;SDS011;3661;53.288;10.458;2022-11-21T14:09:05;18.65;;;17.85;;
7239;SDS011;3661;53.288;10.458;2022-11-21T14:11:49;16.93;;;16.23;;
7239;SDS011;3661;53.288;10.458;2022-11-21T14:14:27;12.82;;;12.32;;
7239;SDS011;3661;53.288;10.458;2022-11-21T14:20:07;14.90;;;14.15;;
7239;SDS011;3661;53.288;10.458;2022-11-21T14:22:46;16.88;;;16.13;;
7239;SDS011;3661;53.288;10.458;2022-11-21T14:25:28;14.43;;;13.77;;
7239;SDS011;3661;53.288;10.458;2022-11-21T14:28:07;15.25;;;14.55;;
7239;SDS011;3661;53.288;10.458;2022-11-21T14:30:46;13.75;;;13.15;;
7239;SDS011;3661;53.288;10.458;2022-11-21T14:33:20;14.37;;;13.77;;
7239;SDS011;3661;53.288;10.458;2022-11-21T14:35:58;18.50;;;17.70;;
7239;SDS011;3661;53.288;10.458;2022-11-21T14:38:39;14.95;;;14.25;;
7239;SDS011;3661;53.288;10.458;2022-11-21T14:41:29;18.33;;;17.53;;
7239;SDS011;3661;53.288;10.458;2022-11-21T14:44:04;15.05;;;14.45;;
7239;SDS011;3661;53.288;10.458;2022-11-21T14:47:01;16.40;;;15.68;;
7239;SDS011;3661;53.288;10.458;2022-11-21T14:49:38;18.90;;;18.00;;
7239;SDS011;3661;53.288;10.458;2022-11-21T14:52:22;16.60;;;15.75;;
7239;SDS011;3661;53.288;10.458;2022-11-21T14:54:57;18.40;;;17.30;;
7239;SDS011;3661;53.288;10.458;2022-11-21T14:57:31;18.80;;;17.73;;
7239;SDS011;3661;53.288;10.458;2022-11-21T15:00:10;23.05;;;21.75;;
7239;SDS011;3661;53.288;10.458;2022-11-21T15:05:58;29.52;;;27.85;;
7239;SDS011;3661;53.288;10.458;2022-11-21T15:08:32;27.65;;;25.92;;
7239;SDS011;3661;53.288;10.458;2022-11-21T15:11:05;24.40;;;22.95;;
7239;SDS011;3661;53.288;10.458;2022-11-21T15:13:39;24.48;;;23.10;;
7239;SDS011;3661;53.288;10.458;2022-11-21T15:16:13;20.13;;;18.83;;
7239;SDS011;3661;53.288;10.458;2022-11-21T15:18:45;19.33;;;18.23;;
7239;SDS011;3661;53.288;10.458;2022-11-21T15:21:19;19.45;;;18.52;;
7239;SDS011;3661;53.288;10.458;2022-11-21T15:23:53;18.58;;;17.55;;
7239;SDS011;3661;53.288;10.458;2022-11-21T15:26:29;20.07;;;19.07;;
7239;SDS011;3661;53.288;10.458;2022-11-21T15:29:15;18.73;;;17.83;;
7239;SDS011;3661;53.288;10.458;2022-11-21T15:32:06;19.83;;;18.83;;
7239;SDS011;3661;53.288;10.458;2022-11-21T15:34:39;18.27;;;17.35;;
7239;SDS011;3661;53.288;10.458;2022-11-21T15:37:15;19.53;;;18.53;;
7239;SDS011;3661;53.288;10.458;2022-11-21T15:39:48;19.08;;;18.17;;
7239;SDS011;3661;53.288;10.458;2022-11-21T15:42:34;19.15;;;18.25;;
7239;SDS011;3661;53.288;10.458;2022-11-21T15:45:19;16.65;;;15.90;;
7239;SDS011;3661;53.288;10.458;2022-11-21T15:47:56;16.52;;;15.73;;
7239;SDS011;3661;53.288;10.458;2022-11-21T15:50:28;17.63;;;16.83;;
7239;SDS011;3661;53.288;10.458;2022-11-21T15:53:01;17.53;;;16.80;;
7239;SDS011;3661;53.288;10.458;2022-11-21T15:55:34;18.10;;;17.10;;